Time;durP1;ratioP1;P1;durP2;ratioP2;P2;SDS_P1;SDS_P2;PMS_P1;PMS_P2;Temp;Humidity;BMP_temperature;BMP_pressure;BME280_temperature;BME280_humidity;BME280_pressure;Samples;Min_cycle;Max_cycle;Signal;HPM_P1;HPM_P2
2022/06/17 00:04:49;;;;;;;0.95;0.32;;;17.80;83.80;;;;;;10161389;29;20500;-63
2022/06/17 00:09:51;;;;;;;1.95;0.50;;;17.70;84.20;;;;;;10155115;29;20067;-63
2022/06/17 00:15:13;;;;;;;1.50;0.55;;;17.60;84.60;;;;;;10176261;29;20486;-63
2022/06/17 00:20:18;;;;;;;2.25;0.60;;;17.60;85.90;;;;;;10171440;29;20070;-62
2022/06/17 00:25:25;;;;;;;1.70;0.60;;;17.50;86.30;;;;;;10166193;29;20071;-63
2022/06/17 00:30:29;;;;;;;;;;;17.40;87.10;;;;;;10170975;29;20056;-62
2022/06/17 00:35:44;;;;;;;2.40;0.75;;;17.40;87.40;;;;;;10174017;29;20429;-63
2022/06/17 00:40:46;;;;;;;2.45;0.70;;;17.30;88.20;;;;;;10158366;29;20051;-62
2022/06/17 00:45:55;;;;;;;3.70;0.70;;;17.20;89.00;;;;;;10171898;29;20111;-63
2022/06/17 00:51:13;;;;;;;1.20;0.57;;;17.10;89.20;;;;;;10167112;29;20052;-63
2022/06/17 00:56:25;;;;;;;1.70;0.70;;;17.00;90.20;;;;;;10174228;29;21962;-64
2022/06/17 01:01:31;;;;;;;2.25;0.43;;;16.90;91.20;;;;;;10175878;29;20654;-65
2022/06/17 01:06:38;;;;;;;3.25;0.60;;;16.70;91.40;;;;;;10168908;29;20151;-62
2022/06/17 01:11:41;;;;;;;;;;;16.60;91.50;;;;;;10178388;29;20055;-65
2022/06/17 01:16:44;;;;;;;2.15;0.52;;;16.60;91.90;;;;;;10171328;29;20034;-64
2022/06/17 01:21:53;;;;;;;0.93;0.50;;;16.50;92.30;;;;;;10165604;29;20052;-63
2022/06/17 01:26:55;;;;;;;1.08;0.40;;;16.50;92.90;;;;;;10172928;29;20060;-65
2022/06/17 01:31:57;;;;;;;2.05;0.60;;;16.40;93.50;;;;;;10152638;29;20127;-65
2022/06/17 01:36:59;;;;;;;0.90;0.50;;;16.30;93.60;;;;;;10159851;29;20116;-65
2022/06/17 01:42:05;;;;;;;2.47;0.50;;;16.10;94.30;;;;;;10166279;29;20059;-65
2022/06/17 01:47:14;;;;;;;3.40;0.70;;;15.90;95.10;;;;;;10168576;29;20051;-64
2022/06/17 01:52:22;;;;;;;2.60;0.70;;;15.80;95.30;;;;;;10164113;29;20508;-65
2022/06/17 01:57:31;;;;;;;2.47;0.70;;;15.70;96.30;;;;;;10168651;29;20067;-65
2022/06/17 02:02:33;;;;;;;4.43;0.55;;;15.70;97.00;;;;;;10172483;29;20060;-63
2022/06/17 02:07:48;;;;;;;2.88;0.70;;;15.60;97.40;;;;;;10167312;29;20052;-62
2022/06/17 02:12:50;;;;;;;3.55;0.85;;;15.40;98.20;;;;;;10168302;29;20119;-63
2022/06/17 02:17:53;;;;;;;3.53;0.63;;;15.30;98.60;;;;;;10171269;29;20066;-63
2022/06/17 02:22:56;;;;;;;1.35;0.60;;;15.20;98.90;;;;;;10165619;29;20052;-63
2022/06/17 02:28:02;;;;;;;1.98;0.70;;;15.10;99.30;;;;;;10161093;29;20052;-63
2022/06/17 02:33:05;;;;;;;0.80;0.50;;;15.10;99.90;;;;;;10120572;29;20052;-63
2022/06/17 02:38:30;;;;;;;1.58;0.70;;;15.00;99.90;;;;;;10143714;29;20056;-63
2022/06/17 02:43:36;;;;;;;1.90;0.80;;;15.00;99.90;;;;;;10156952;29;20047;-61
2022/06/17 02:48:46;;;;;;;1.43;0.60;;;14.90;99.90;;;;;;10157298;29;20060;-61
2022/06/17 02:53:48;;;;;;;2.22;0.50;;;14.90;99.90;;;;;;10165304;29;20075;-62
2022/06/17 02:59:12;;;;;;;2.63;0.60;;;14.90;99.90;;;;;;10166459;29;20063;-62
2022/06/17 03:04:20;;;;;;;2.88;0.70;;;14.70;99.90;;;;;;10175090;29;20079;-62
2022/06/17 03:09:29;;;;;;;1.13;0.75;;;14.70;99.90;;;;;;10155328;29;20060;-64
2022/06/17 03:14:39;;;;;;;2.38;0.60;;;14.70;99.90;;;;;;10140696;29;20418;-66
2022/06/17 03:19:41;;;;;;;1.50;0.60;;;14.70;99.90;;;;;;10175340;29;20123;-65
2022/06/17 03:25:09;;;;;;;1.20;0.80;;;14.70;99.90;;;;;;10152459;29;20063;-66
2022/06/17 03:30:18;;;;;;;2.30;0.80;;;14.60;99.90;;;;;;10151229;29;20108;-67
2022/06/17 03:35:24;;;;;;;2.53;0.90;;;14.70;99.90;;;;;;10173576;29;20761;-65
2022/06/17 03:40:34;;;;;;;3.67;0.70;;;14.60;99.90;;;;;;10157631;29;20106;-65
2022/06/17 03:45:58;;;;;;;2.45;1.10;;;14.60;99.90;;;;;;10172712;29;20067;-65
2022/06/17 03:51:00;;;;;;;6.18;0.85;;;14.50;99.90;;;;;;10151828;29;20433;-65
2022/06/17 03:56:15;;;;;;;1.75;0.70;;;14.50;99.90;;;;;;10171866;29;20048;-65
2022/06/17 04:01:28;;;;;;;1.42;0.70;;;14.50;99.90;;;;;;10170799;29;20632;-65
2022/06/17 04:06:35;;;;;;;2.05;0.90;;;14.50;99.90;;;;;;10177050;29;20054;-65
2022/06/17 04:11:39;;;;;;;3.42;0.73;;;14.60;99.90;;;;;;10173478;29;20464;-65
2022/06/17 04:17:04;;;;;;;4.25;1.00;;;14.70;99.90;;;;;;10174288;29;20060;-66
2022/06/17 04:22:17;;;;;;;3.15;0.90;;;14.70;99.90;;;;;;10162025;29;20058;-66
2022/06/17 04:27:19;;;;;;;3.22;0.80;;;14.80;99.90;;;;;;10139827;29;20050;-65
2022/06/17 04:32:31;;;;;;;2.50;0.75;;;14.80;99.90;;;;;;10163831;29;20060;-66
2022/06/17 04:37:33;;;;;;;1.20;0.82;;;14.90;99.90;;;;;;10150959;29;20130;-66
2022/06/17 04:42:43;;;;;;;2.78;0.75;;;14.90;99.90;;;;;;10136059;29;20520;-66
2022/06/17 04:47:45;;;;;;;1.75;0.85;;;15.10;99.90;;;;;;10148656;29;20062;-66
2022/06/17 04:52:50;;;;;;;2.35;0.82;;;15.20;99.90;;;;;;10169220;29;20504;-66
2022/06/17 04:57:55;;;;;;;0.80;0.60;;;15.30;99.90;;;;;;10157575;29;20047;-66
2022/06/17 05:02:58;;;;;;;3.20;0.85;;;15.40;99.90;;;;;;10166759;29;20585;-66
2022/06/17 05:08:03;;;;;;;3.60;0.80;;;15.30;99.90;;;;;;10133237;29;20044;-67
2022/06/17 05:13:09;;;;;;;2.17;0.90;;;15.40;99.90;;;;;;10134390;29;20063;-66
2022/06/17 05:18:12;;;;;;;2.50;1.15;;;15.40;99.90;;;;;;10141283;29;20455;-66
2022/06/17 05:23:16;;;;;;;2.47;0.90;;;15.50;99.90;;;;;;10167984;29;20067;-66
2022/06/17 05:28:20;;;;;;;2.67;1.05;;;15.60;99.90;;;;;;10152153;29;20487;-66
2022/06/17 05:33:23;;;;;;;1.40;0.80;;;15.70;99.90;;;;;;10146359;29;20111;-65
2022/06/17 05:38:24;;;;;;;4.25;1.20;;;15.90;99.90;;;;;;10159323;29;20511;-66
2022/06/17 05:43:26;;;;;;;1.77;0.95;;;16.00;99.90;;;;;;10158456;29;20126;-66
2022/06/17 05:48:28;;;;;;;3.13;1.33;;;16.20;99.90;;;;;;10143695;29;20142;-66
2022/06/17 05:53:29;;;;;;;1.35;0.60;;;16.40;99.90;;;;;;10129607;29;20062;-66
2022/06/17 05:58:31;;;;;;;4.85;0.73;;;16.50;99.90;;;;;;10172985;29;20052;-66
2022/06/17 06:03:33;;;;;;;9.35;0.70;;;16.70;99.90;;;;;;10170585;29;20118;-66
2022/06/17 06:08:34;;;;;;;2.13;0.70;;;16.90;99.90;;;;;;10158422;29;20452;-66
2022/06/17 06:13:37;;;;;;;1.75;0.80;;;17.10;99.90;;;;;;10144494;29;20064;-67
2022/06/17 06:18:39;;;;;;;1.58;0.73;;;17.40;99.90;;;;;;10173355;29;20062;-67
2022/06/17 06:23:42;;;;;;;2.53;0.60;;;17.50;99.90;;;;;;10159591;29;20495;-69
2022/06/17 06:28:44;;;;;;;2.20;0.63;;;17.70;99.90;;;;;;10171238;29;20063;-68
2022/06/17 06:33:46;;;;;;;2.60;0.75;;;17.90;99.90;;;;;;10171542;29;20496;-67
2022/06/17 06:38:48;;;;;;;1.92;0.60;;;18.10;99.90;;;;;;10155795;29;20059;-68
2022/06/17 06:43:52;;;;;;;0.75;0.52;;;18.30;99.90;;;;;;10135740;29;20143;-68
2022/06/17 06:48:54;;;;;;;1.70;0.50;;;18.50;99.90;;;;;;10167962;29;20537;-67
2022/06/17 06:53:55;;;;;;;3.88;0.50;;;18.70;99.90;;;;;;10173181;29;20060;-65
2022/06/17 06:58:57;;;;;;;2.47;0.40;;;18.90;99.90;;;;;;10142557;29;20044;-66
2022/06/17 07:09:26;;;;;;;0.80;0.40;;;19.30;98.50;;;;;;10198808;28;20146;-84
2022/06/17 07:14:28;;;;;;;2.15;0.40;;;19.50;97.00;;;;;;10200722;28;20075;-84
2022/06/17 07:19:30;;;;;;;4.65;0.60;;;19.70;95.90;;;;;;10218348;28;20059;-83
2022/06/17 07:24:32;;;;;;;1.40;0.43;;;19.90;95.70;;;;;;10201338;28;20140;-83
2022/06/17 07:29:33;;;;;;;3.58;0.40;;;20.10;93.80;;;;;;10223592;28;20061;-83
2022/06/17 07:34:37;;;;;;;4.22;0.50;;;20.30;94.00;;;;;;10204237;28;20067;-83
2022/06/17 07:39:54;;;;;;;2.78;0.40;;;20.30;93.60;;;;;;10203060;28;20070;-84
2022/06/17 07:44:56;;;;;;;;;;;20.50;93.60;;;;;;10220681;28;20070;-84
2022/06/17 07:49:58;;;;;;;1.45;0.40;;;20.70;93.10;;;;;;10222768;28;19954;-84
2022/06/17 07:54:59;;;;;;;0.73;0.43;;;20.80;92.40;;;;;;10225949;28;20542;-84
2022/06/17 08:00:04;;;;;;;4.15;0.40;;;21.00;92.10;;;;;;10212727;28;20055;-83
2022/06/17 08:05:06;;;;;;;1.38;0.40;;;21.20;89.40;;;;;;10194962;28;20640;-83
2022/06/17 08:10:11;;;;;;;1.20;0.30;;;21.40;88.20;;;;;;10197036;28;20055;-84
2022/06/17 08:15:13;;;;;;;2.88;0.30;;;21.60;89.10;;;;;;10220504;28;20043;-84
2022/06/17 08:20:25;;;;;;;6.43;0.40;;;21.80;88.10;;;;;;10234632;28;20059;-84
2022/06/17 08:25:26;;;;;;;4.45;0.47;;;21.90;86.90;;;;;;10221550;28;20047;-84
2022/06/17 08:30:33;;;;;;;1.55;0.47;;;22.30;84.20;;;;;;10205963;28;20055;-83
2022/06/17 08:35:38;;;;;;;1.55;0.38;;;22.60;84.20;;;;;;10218150;28;20059;-84
2022/06/17 08:40:57;;;;;;;1.30;0.40;;;22.80;81.80;;;;;;10203230;28;20098;-84
2022/06/17 08:46:42;;;;;;;2.83;0.30;;;23.10;77.50;;;;;;10213045;28;20053;-84
2022/06/17 08:52:05;;;;;;;3.08;0.28;;;23.30;74.10;;;;;;10190709;28;20533;-89
2022/06/17 08:57:35;;;;;;;1.20;0.47;;;23.30;75.20;;;;;;10211856;29;20058;-89
2022/06/17 09:03:14;;;;;;;3.65;0.30;;;23.20;72.10;;;;;;10237588;28;20039;-89
2022/06/17 09:08:49;;;;;;;1.17;0.43;;;23.20;71.70;;;;;;10211072;29;20098;-90
2022/06/17 09:14:09;;;;;;;1.70;0.30;;;23.60;71.20;;;;;;10213440;28;20106;-89
2022/06/17 09:19:15;;;;;;;1.85;0.20;;;23.70;70.00;;;;;;10217579;28;20099;-90
2022/06/17 09:24:22;;;;;;;0.80;0.50;;;24.00;68.50;;;;;;10199222;29;20464;-90
2022/06/17 09:30:01;;;;;;;6.35;0.47;;;23.80;68.10;;;;;;10209071;28;20051;-89
2022/06/17 09:35:39;;;;;;;1.80;0.30;;;24.00;68.80;;;;;;10175760;29;20417;-90
2022/06/17 09:40:56;;;;;;;1.08;0.30;;;24.00;67.60;;;;;;10178134;28;20059;-91
2022/06/17 09:46:21;;;;;;;0.80;0.40;;;24.00;67.30;;;;;;10186582;28;20067;-91
2022/06/17 09:52:01;;;;;;;2.85;0.30;;;23.90;67.30;;;;;;10225575;29;20058;-89
2022/06/17 09:57:31;;;;;;;0.77;0.30;;;24.20;68.40;;;;;;10194441;28;20050;-90
2022/06/17 10:03:10;;;;;;;0.93;0.30;;;24.60;66.10;;;;;;10218583;28;20077;-89
2022/06/17 10:08:36;;;;;;;1.00;0.40;;;24.70;64.60;;;;;;10234765;28;20412;-89
2022/06/17 10:13:51;;;;;;;;;;;24.40;64.60;;;;;;10208983;28;20451;-90
2022/06/17 10:19:27;;;;;;;0.77;0.20;;;24.70;64.10;;;;;;10210095;28;19926;-90
2022/06/17 10:24:40;;;;;;;1.40;0.30;;;24.70;60.10;;;;;;10216075;29;20138;-90
2022/06/17 10:29:42;;;;;;;2.92;0.30;;;25.30;61.40;;;;;;10205343;29;20056;-89
2022/06/17 10:34:54;;;;;;;3.35;0.40;;;25.60;60.70;;;;;;10205611;28;20055;-90
2022/06/17 10:39:57;;;;;;;4.63;0.30;;;25.80;61.60;;;;;;10208916;28;20155;-90
2022/06/17 10:45:01;;;;;;;2.03;0.20;;;26.20;58.90;;;;;;10222771;29;20055;-90
2022/06/17 10:50:17;;;;;;;0.80;0.20;;;25.90;57.30;;;;;;10230164;28;20065;-90
2022/06/17 10:55:23;;;;;;;;;;;25.70;55.60;;;;;;10222208;28;20051;-91
2022/06/17 11:00:26;;;;;;;1.60;0.20;;;26.50;56.80;;;;;;10208948;28;19993;-87
2022/06/17 11:05:31;;;;;;;4.00;0.30;;;27.10;55.50;;;;;;10221300;28;20059;-90
2022/06/17 11:10:33;;;;;;;1.88;0.20;;;27.00;56.30;;;;;;10210085;28;20063;-90
2022/06/17 11:15:47;;;;;;;2.28;0.30;;;26.90;54.90;;;;;;10215193;28;20055;-90
2022/06/17 11:21:19;;;;;;;2.47;0.30;;;26.50;54.20;;;;;;10224906;28;20058;-90
2022/06/17 11:26:30;;;;;;;0.20;0.20;;;27.00;52.40;;;;;;10189923;28;20059;-87
2022/06/17 11:31:35;;;;;;;2.67;0.25;;;27.30;54.60;;;;;;10179532;28;20064;-87
2022/06/17 11:36:53;;;;;;;1.60;0.30;;;27.80;52.40;;;;;;10226445;28;20065;-87
2022/06/17 11:41:55;;;;;;;0.65;0.20;;;27.70;52.90;;;;;;10212920;29;20073;-87
2022/06/17 11:47:01;;;;;;;3.92;0.30;;;28.10;54.60;;;;;;10235396;28;20091;-87
2022/06/17 11:52:32;;;;;;;0.75;0.30;;;28.00;50.60;;;;;;10190559;28;20066;-87
2022/06/17 11:57:40;;;;;;;2.75;0.20;;;28.60;52.70;;;;;;10230868;28;20059;-87
2022/06/17 12:02:59;;;;;;;1.13;0.30;;;28.40;48.40;;;;;;10215701;28;20047;-86
2022/06/17 12:08:15;;;;;;;1.48;0.20;;;28.50;50.90;;;;;;10209715;29;20073;-87
2022/06/17 12:13:33;;;;;;;0.35;0.13;;;28.70;49.20;;;;;;10223672;28;20063;-87
2022/06/17 12:18:38;;;;;;;0.95;0.22;;;28.80;48.50;;;;;;10227891;28;20043;-87
2022/06/17 12:23:46;;;;;;;0.30;0.20;;;28.80;48.40;;;;;;10230972;28;20063;-87
2022/06/17 12:28:56;;;;;;;0.40;0.20;;;28.90;50.60;;;;;;10218483;28;20062;-87
2022/06/17 12:34:25;;;;;;;4.30;0.28;;;28.90;48.20;;;;;;10204979;29;20067;-86
2022/06/17 12:39:52;;;;;;;0.50;0.20;;;29.00;46.60;;;;;;10226205;29;20062;-89
2022/06/17 12:45:28;;;;;;;7.25;0.20;;;29.00;47.90;;;;;;10245905;28;20447;-88
2022/06/17 12:56:29;;;;;;;3.10;0.30;;;28.80;46.40;;;;;;10232284;28;20047;-88
2022/06/17 13:01:35;;;;;;;3.72;0.50;;;29.00;48.70;;;;;;10205253;28;20118;-88
2022/06/17 13:07:04;;;;;;;3.50;0.20;;;28.90;44.60;;;;;;10221785;28;20150;-88
2022/06/17 13:12:23;;;;;;;1.45;0.20;;;29.10;46.60;;;;;;10224577;28;20816;-87
2022/06/17 13:17:43;;;;;;;0.32;0.20;;;29.40;48.10;;;;;;10212930;28;20051;-87
2022/06/17 13:23:00;;;;;;;0.30;0.30;;;29.70;47.30;;;;;;10224308;28;20075;-88
2022/06/17 13:28:30;;;;;;;6.50;0.30;;;29.50;45.70;;;;;;10211211;28;20073;-88
2022/06/17 13:33:52;;;;;;;2.95;0.25;;;29.80;46.80;;;;;;10219890;28;20453;-89
2022/06/17 13:38:58;;;;;;;0.28;0.17;;;30.20;45.90;;;;;;10233396;28;20062;-90
2022/06/17 13:44:10;;;;;;;0.38;0.30;;;30.40;42.80;;;;;;10244877;28;20584;-90
2022/06/17 13:49:34;;;;;;;2.67;0.10;;;30.50;43.90;;;;;;10205097;28;20043;-89
2022/06/17 13:54:54;;;;;;;1.42;0.60;;;30.90;43.50;;;;;;10204391;28;20450;-89
2022/06/17 14:00:17;;;;;;;1.08;0.20;;;30.90;42.30;;;;;;10203045;28;20059;-89
2022/06/17 14:05:24;;;;;;;1.48;0.20;;;30.70;42.90;;;;;;10222107;28;20082;-89
2022/06/17 14:10:47;;;;;;;0.10;0.10;;;30.80;41.90;;;;;;10222542;29;20063;-89
2022/06/17 14:16:21;;;;;;;0.52;0.20;;;31.10;42.50;;;;;;10221481;28;20059;-89
2022/06/17 14:21:44;;;;;;;0.20;0.20;;;31.60;42.20;;;;;;10208516;28;20055;-89
2022/06/17 14:26:47;;;;;;;0.20;0.20;;;32.00;40.80;;;;;;10226581;28;20055;-89
2022/06/17 14:31:58;;;;;;;0.23;0.17;;;32.40;40.50;;;;;;10212292;28;20059;-90
2022/06/17 14:37:08;;;;;;;0.82;0.30;;;31.90;39.50;;;;;;10211520;28;20110;-90
2022/06/17 14:42:19;;;;;;;0.82;0.20;;;32.70;39.20;;;;;;10203612;23;20048;-64
2022/06/17 14:47:21;;;;;;;0.50;0.20;;;32.50;39.20;;;;;;10199157;29;20064;-65
2022/06/17 14:52:32;;;;;;;0.63;0.20;;;32.70;38.80;;;;;;10196327;29;20060;-64
2022/06/17 14:58:06;;;;;;;1.05;0.20;;;32.70;39.20;;;;;;10194794;28;20060;-65
2022/06/17 15:03:20;;;;;;;0.40;0.10;;;33.30;37.80;;;;;;10197103;29;20055;-64
2022/06/17 15:08:34;;;;;;;0.20;0.10;;;32.90;38.60;;;;;;10196054;28;20059;-65
2022/06/17 15:18:59;;;;;;;2.45;0.10;;;32.10;37.70;;;;;;10194172;29;20060;-64
2022/06/17 15:24:14;;;;;;;1.75;0.20;;;32.20;37.90;;;;;;10199380;29;20056;-65
2022/06/17 15:29:19;;;;;;;2.30;0.20;;;32.30;37.90;;;;;;10195510;28;20107;-64
2022/06/17 15:34:27;;;;;;;1.48;0.20;;;32.70;37.80;;;;;;10192028;28;20226;-67
2022/06/17 15:39:29;;;;;;;0.40;0.10;;;32.80;40.30;;;;;;10190648;28;20451;-64
2022/06/17 15:44:41;;;;;;;1.75;0.10;;;33.40;37.50;;;;;;10192679;28;20981;-64
2022/06/17 15:49:56;;;;;;;0.40;0.20;;;33.30;36.90;;;;;;10191891;28;22738;-63
2022/06/17 15:55:09;;;;;;;0.10;0.10;;;33.30;37.00;;;;;;10194333;28;20052;-63
2022/06/17 16:00:37;;;;;;;0.10;0.00;;;33.90;36.60;;;;;;10192104;28;20115;-64
2022/06/17 16:05:39;;;;;;;2.30;0.10;;;33.40;36.60;;;;;;10194383;28;20056;-64
2022/06/17 16:11:02;;;;;;;1.95;0.03;;;33.40;36.80;;;;;;10193449;28;20056;-64
2022/06/17 16:16:20;;;;;;;1.35;0.00;;;33.70;36.00;;;;;;10182732;28;20056;-65
2022/06/17 16:21:28;;;;;;;1.33;0.10;;;33.00;36.80;;;;;;10191917;28;20047;-66
2022/06/17 16:26:30;;;;;;;1.17;0.43;;;32.80;36.70;;;;;;10196306;28;20118;-63
2022/06/17 16:31:32;;;;;;;1.30;0.10;;;32.80;37.30;;;;;;10195925;28;20541;-64
2022/06/17 16:36:39;;;;;;;0.25;0.00;;;32.80;37.00;;;;;;10193294;28;20062;-62
2022/06/17 16:47:09;;;;;;;1.23;0.00;;;32.50;36.80;;;;;;10191956;28;20115;-61
2022/06/17 16:52:16;;;;;;;1.38;0.10;;;32.70;36.60;;;;;;10193069;28;20047;-64
2022/06/17 16:57:24;;;;;;;0.68;0.00;;;32.80;36.40;;;;;;10206242;28;20478;-64
2022/06/17 17:02:27;;;;;;;0.30;0.00;;;32.60;35.50;;;;;;10192135;28;20063;-65
2022/06/17 17:07:29;;;;;;;0.20;0.10;;;32.70;36.90;;;;;;10189531;29;20083;-63
2022/06/17 17:12:31;;;;;;;0.90;0.10;;;32.20;37.50;;;;;;10186798;28;20047;-64
2022/06/17 17:17:33;;;;;;;0.68;0.10;;;32.60;36.90;;;;;;10189625;29;20056;-64
2022/06/17 17:22:37;;;;;;;2.05;0.10;;;32.80;37.00;;;;;;10191788;29;20067;-64
2022/06/17 17:27:39;;;;;;;2.00;0.10;;;32.70;38.00;;;;;;10192309;29;20107;-64
2022/06/17 17:32:42;;;;;;;0.22;0.10;;;32.90;37.90;;;;;;10191752;28;20059;-64
2022/06/17 17:37:45;;;;;;;;;;;32.70;38.10;;;;;;10183664;29;20067;-65
2022/06/17 17:42:47;;;;;;;1.20;0.10;;;32.90;37.80;;;;;;10187747;28;19938;-64
2022/06/17 17:47:52;;;;;;;0.98;0.10;;;32.80;38.50;;;;;;10189191;29;20047;-64
2022/06/17 17:52:54;;;;;;;0.95;0.10;;;32.90;38.10;;;;;;10188725;28;20056;-64
2022/06/17 17:57:57;;;;;;;1.08;0.10;;;32.70;38.70;;;;;;10190165;28;20063;-64
2022/06/17 18:02:59;;;;;;;1.55;0.43;;;32.30;38.80;;;;;;10189454;29;20052;-64
2022/06/17 18:08:01;;;;;;;1.42;0.10;;;32.20;39.00;;;;;;10196625;29;20494;-65
2022/06/17 18:13:04;;;;;;;0.20;0.10;;;32.40;41.00;;;;;;10191156;28;20557;-64
2022/06/17 18:18:06;;;;;;;2.30;0.10;;;32.00;39.40;;;;;;10194971;28;20114;-64
2022/06/17 18:23:13;;;;;;;2.17;0.10;;;31.40;40.40;;;;;;10187342;29;20075;-64
2022/06/17 18:28:16;;;;;;;1.70;0.40;;;31.20;41.50;;;;;;10189774;29;20063;-64
2022/06/17 18:33:18;;;;;;;0.85;0.30;;;30.90;42.60;;;;;;10189334;29;20051;-65
2022/06/17 18:38:22;;;;;;;1.30;0.30;;;30.60;45.20;;;;;;10190972;29;20056;-64
2022/06/17 18:43:24;;;;;;;0.77;0.40;;;30.40;45.70;;;;;;10187424;29;20056;-65
2022/06/17 18:48:26;;;;;;;2.97;0.60;;;29.90;46.40;;;;;;10186926;29;20062;-64
2022/06/17 18:53:28;;;;;;;8.30;1.00;;;29.60;47.20;;;;;;10185698;29;20084;-65
2022/06/17 18:58:30;;;;;;;2.30;0.80;;;29.20;48.10;;;;;;10184431;29;20933;-65
2022/06/17 19:03:35;;;;;;;1.65;0.80;;;29.00;48.70;;;;;;10187795;29;20064;-64
2022/06/17 19:19:20;;;;;;;1.83;0.40;;;28.10;50.30;;;;;;10189026;29;22314;-68
2022/06/17 19:24:21;;;;;;;1.33;0.68;;;27.90;51.00;;;;;;10187378;29;20063;-68
2022/06/17 19:29:43;;;;;;;0.98;0.45;;;27.60;52.10;;;;;;10190051;29;20150;-68
2022/06/17 19:34:46;;;;;;;2.35;0.43;;;27.40;53.00;;;;;;10195230;29;20471;-68
2022/06/17 19:39:48;;;;;;;3.13;0.52;;;27.10;53.10;;;;;;10191768;29;20080;-68
2022/06/17 19:44:50;;;;;;;3.92;1.20;;;26.70;56.50;;;;;;10195584;29;20095;-68
2022/06/17 19:49:54;;;;;;;5.32;0.90;;;26.30;57.50;;;;;;10192864;29;20055;-68
2022/06/17 19:55:04;;;;;;;8.95;1.30;;;25.90;57.40;;;;;;10191668;29;20043;-69
2022/06/17 20:00:07;;;;;;;4.93;1.23;;;25.80;58.20;;;;;;10195443;29;20054;-68
2022/06/17 20:05:28;;;;;;;4.47;0.90;;;25.50;59.00;;;;;;10196702;29;20060;-68
2022/06/17 20:10:31;;;;;;;3.92;1.00;;;25.30;60.60;;;;;;10185351;29;20112;-68
2022/06/17 20:15:35;;;;;;;2.97;0.90;;;25.10;61.80;;;;;;10194696;29;20450;-69
2022/06/17 20:20:38;;;;;;;4.38;1.40;;;24.90;62.90;;;;;;10189964;29;20051;-67
2022/06/17 20:25:41;;;;;;;8.15;2.00;;;24.70;64.50;;;;;;10190222;29;20075;-68
2022/06/17 20:30:43;;;;;;;6.28;3.22;;;24.50;66.10;;;;;;10188626;29;20822;-67
2022/06/17 20:35:44;;;;;;;11.85;4.75;;;24.30;68.00;;;;;;10192438;29;20143;-67
2022/06/17 20:40:48;;;;;;;9.25;3.53;;;24.10;69.30;;;;;;10191712;29;20601;-66
2022/06/17 20:51:26;;;;;;;6.53;1.00;;;23.60;69.60;;;;;;10189555;29;20056;-67
2022/06/17 20:58:08;;;;;;;3.47;1.20;;;23.50;70.80;;;;;;10187409;29;20055;-67
2022/06/17 21:01:57;;;;;;;2.05;0.82;;;23.30;71.80;;;;;;10191708;29;20515;-69
2022/06/17 21:06:59;;;;;;;7.18;1.30;;;23.20;73.00;;;;;;10188920;28;20114;-67
2022/06/17 21:12:01;;;;;;;5.15;1.52;;;23.00;75.10;;;;;;10192264;29;20131;-67
2022/06/17 21:17:03;;;;;;;6.45;1.67;;;22.90;76.50;;;;;;10190577;29;20357;-67
2022/06/17 21:22:05;;;;;;;5.95;2.60;;;22.80;78.80;;;;;;10191907;29;20055;-66
2022/06/17 21:27:12;;;;;;;6.43;2.20;;;22.50;80.40;;;;;;10189154;29;20515;-67
2022/06/17 21:32:15;;;;;;;3.13;1.50;;;22.40;81.20;;;;;;10176239;29;20063;-67
2022/06/17 21:37:17;;;;;;;5.28;1.70;;;22.40;81.70;;;;;;10185041;29;20082;-69
2022/06/17 21:42:20;;;;;;;5.10;1.08;;;22.30;84.20;;;;;;10190063;29;20059;-68
2022/06/17 21:47:22;;;;;;;3.70;1.95;;;22.10;84.10;;;;;;10191949;29;20475;-68
2022/06/17 21:52:23;;;;;;;3.13;1.30;;;22.00;85.50;;;;;;10190302;29;20118;-67
2022/06/17 21:57:29;;;;;;;3.25;0.90;;;21.90;86.70;;;;;;10189094;29;20067;-67
2022/06/17 22:02:33;;;;;;;4.50;1.40;;;21.80;87.50;;;;;;10190079;29;20051;-67
2022/06/17 22:07:34;;;;;;;3.22;1.30;;;21.60;89.20;;;;;;10191452;29;20468;-68
2022/06/17 22:12:36;;;;;;;3.00;1.00;;;21.50;89.50;;;;;;10193997;28;20092;-67
2022/06/17 22:17:38;;;;;;;3.63;1.40;;;21.40;90.30;;;;;;10187410;29;20052;-67
2022/06/17 22:22:40;;;;;;;1.80;0.90;;;21.30;90.50;;;;;;10185694;29;20064;-67
2022/06/17 22:27:42;;;;;;;4.75;0.90;;;21.20;90.80;;;;;;10191111;29;20063;-67
2022/06/17 22:32:44;;;;;;;6.32;1.25;;;21.20;90.50;;;;;;10187872;29;20067;-66
2022/06/17 22:37:51;;;;;;;2.75;0.90;;;21.00;90.80;;;;;;10188960;29;20060;-68
2022/06/17 22:42:53;;;;;;;4.53;0.95;;;20.90;91.30;;;;;;10187333;29;20056;-67
2022/06/17 22:48:03;;;;;;;1.63;0.95;;;20.80;92.40;;;;;;10188986;29;20051;-66
2022/06/17 22:53:11;;;;;;;4.03;1.67;;;20.70;93.40;;;;;;10192664;29;20056;-66
2022/06/17 22:58:15;;;;;;;2.88;2.53;;;20.60;94.20;;;;;;10187422;29;20135;-66
2022/06/17 23:08:48;;;;;;;5.13;3.10;;;20.40;94.40;;;;;;10197610;29;20475;-63
2022/06/17 23:13:49;;;;;;;5.25;3.65;;;20.30;95.10;;;;;;10198353;29;20051;-63
2022/06/17 23:24:15;;;;;;;3.75;2.55;;;20.10;96.00;;;;;;10199125;29;20095;-64
2022/06/17 23:29:17;;;;;;;3.45;2.58;;;20.00;96.10;;;;;;10199513;29;20115;-63
2022/06/17 23:34:19;;;;;;;10.57;2.35;;;19.90;96.60;;;;;;10194375;29;20189;-63
2022/06/17 23:39:22;;;;;;;3.67;2.58;;;19.80;97.00;;;;;;10197667;29;20052;-63
2022/06/17 23:44:24;;;;;;;2.83;2.00;;;19.70;97.40;;;;;;10192912;29;20106;-63
2022/06/17 23:49:26;;;;;;;5.22;2.50;;;19.70;98.00;;;;;;10193176;29;20167;-63
2022/06/17 23:54:35;;;;;;;4.28;2.97;;;19.60;97.70;;;;;;10180043;29;20072;-63
2022/06/17 23:59:37;;;;;;;7.13;3.00;;;19.50;98.10;;;;;;10195865;29;20058;-63
